createdAt,value
2019-06-10T00:00:16.385Z,6.22
2019-06-10T00:02:46.241Z,6.25
2019-06-10T00:05:15.975Z,6.75
2019-06-10T00:07:45.687Z,4.83
2019-06-10T00:10:15.396Z,5.90
2019-06-10T00:12:46.841Z,9.80
2019-06-10T00:15:16.453Z,5.97
2019-06-10T00:17:54.875Z,9.45
2019-06-10T00:20:17.486Z,9.50
2019-06-10T00:22:47.223Z,6.65
2019-06-10T00:25:16.933Z,5.08
2019-06-10T00:27:46.643Z,5.00
2019-06-10T00:30:16.352Z,6.97
2019-06-10T00:32:46.071Z,5.65
2019-06-10T00:35:15.779Z,4.40
2019-06-10T00:37:45.489Z,5.22
2019-06-10T00:40:15.194Z,6.40
2019-06-10T00:42:44.875Z,6.08
2019-06-10T00:45:18.015Z,6.78
2019-06-10T00:47:46.065Z,8.67
2019-06-10T00:50:15.749Z,6.45
2019-06-10T00:52:45.566Z,7.85
2019-06-10T00:55:15.403Z,10.53
2019-06-10T00:57:45.110Z,8.55
2019-06-10T01:00:25.258Z,6.40
2019-06-10T01:02:46.077Z,6.20
2019-06-10T01:05:15.778Z,5.12
2019-06-10T01:07:45.489Z,13.10
2019-06-10T01:10:15.195Z,8.85
2019-06-10T01:12:44.906Z,8.43
2019-06-10T01:15:15.320Z,7.03
2019-06-10T01:17:45.146Z,6.05
2019-06-10T01:20:15.961Z,7.85
2019-06-10T01:22:45.971Z,5.12
2019-06-10T01:25:17.821Z,4.92
2019-06-10T01:27:46.955Z,10.90
2019-06-10T01:30:21.645Z,7.30
2019-06-10T01:32:47.913Z,6.80
2019-06-10T01:35:17.623Z,7.45
2019-06-10T01:37:47.334Z,6.78
2019-06-10T01:40:17.976Z,5.17
2019-06-10T01:42:47.879Z,6.75
2019-06-10T01:45:17.590Z,7.62
2019-06-10T01:47:47.271Z,7.40
2019-06-10T01:50:18.209Z,11.28
2019-06-10T01:52:48.357Z,7.67
2019-06-10T01:55:18.261Z,5.85
2019-06-10T01:57:48.187Z,7.40
2019-06-10T02:00:23.345Z,8.83
2019-06-10T02:02:52.351Z,13.20
2019-06-10T02:05:22.890Z,7.80
2019-06-10T02:07:52.767Z,8.30
2019-06-10T02:10:23.446Z,8.03
2019-06-10T02:12:53.206Z,6.17
2019-06-10T02:15:22.851Z,7.78
2019-06-10T02:17:52.627Z,7.60
2019-06-10T02:20:23.797Z,11.68
2019-06-10T02:22:53.864Z,11.45
2019-06-10T02:25:23.605Z,11.18
2019-06-10T02:27:53.311Z,9.95
2019-06-10T02:30:39.359Z,8.58
2019-06-10T02:32:56.083Z,12.43
2019-06-10T02:35:37.605Z,7.83
2019-06-10T02:37:58.098Z,10.67
2019-06-10T02:40:32.007Z,8.43
2019-06-10T02:42:59.429Z,8.68
2019-06-10T02:45:33.650Z,8.88
2019-06-10T02:48:03.893Z,14.47
2019-06-10T02:50:54.203Z,8.97
2019-06-10T02:53:30.104Z,7.33
2019-06-10T02:55:55.453Z,8.33
2019-06-10T02:58:33.276Z,7.00
2019-06-10T03:00:56.409Z,7.70
2019-06-10T03:03:37.072Z,10.50
2019-06-10T03:05:58.473Z,8.47
2019-06-10T03:08:31.688Z,7.47
2019-06-10T03:10:59.553Z,8.60
2019-06-10T03:13:29.258Z,6.75
2019-06-10T03:16:02.677Z,6.62
2019-06-10T03:18:33.022Z,7.90
2019-06-10T03:21:05.670Z,5.92
2019-06-10T03:23:35.165Z,7.20
2019-06-10T03:26:04.875Z,7.97
2019-06-10T03:28:34.585Z,8.35
2019-06-10T03:31:05.598Z,12.03
2019-06-10T03:33:41.591Z,8.75
2019-06-10T03:36:06.893Z,10.05
2019-06-10T03:38:38.525Z,6.97
2019-06-10T03:41:08.060Z,10.63
2019-06-10T03:43:37.760Z,10.45
2019-06-10T03:46:09.171Z,11.18
2019-06-10T03:48:38.791Z,11.60
2019-06-10T03:51:08.530Z,6.15
2019-06-10T03:53:38.211Z,11.33
2019-06-10T03:56:07.948Z,8.43
2019-06-10T03:58:37.660Z,9.03
2019-06-10T04:01:07.371Z,7.17
2019-06-10T04:03:37.106Z,11.57
2019-06-10T04:06:06.789Z,9.53
2019-06-10T04:08:36.472Z,9.23
2019-06-10T04:11:06.210Z,7.42
2019-06-10T04:13:35.924Z,6.05
2019-06-10T04:16:05.629Z,7.85
2019-06-10T04:18:35.312Z,5.58
2019-06-10T04:21:05.049Z,6.35
2019-06-10T04:23:36.002Z,7.42
2019-06-10T04:26:05.801Z,8.95
2019-06-10T04:28:35.511Z,8.23
2019-06-10T04:31:05.222Z,8.18
2019-06-10T04:33:34.903Z,8.85
2019-06-10T04:36:04.641Z,6.83
2019-06-10T04:38:34.327Z,5.95
2019-06-10T04:41:04.071Z,8.65
2019-06-10T04:43:33.772Z,7.22
2019-06-10T04:46:03.482Z,8.10
2019-06-10T04:48:33.195Z,6.35
2019-06-10T04:51:05.727Z,9.53
2019-06-10T04:53:35.479Z,9.93
2019-06-10T04:56:06.167Z,8.63
2019-06-10T04:58:36.948Z,8.68
2019-06-10T05:01:12.230Z,8.93
2019-06-10T05:03:43.495Z,9.30
2019-06-10T05:06:14.673Z,7.55
2019-06-10T05:08:44.348Z,6.35
2019-06-10T05:11:14.085Z,11.08
2019-06-10T05:13:43.796Z,8.85
2019-06-10T05:16:13.506Z,7.72
2019-06-10T05:18:43.190Z,8.10
2019-06-10T05:21:13.296Z,8.93
2019-06-10T05:23:44.967Z,9.73
2019-06-10T05:26:14.601Z,10.53
2019-06-10T05:28:44.310Z,8.88
2019-06-10T05:31:13.991Z,12.10
2019-06-10T05:33:43.729Z,7.58
2019-06-10T05:36:14.360Z,8.85
2019-06-10T05:38:44.070Z,8.05
2019-06-10T05:41:13.781Z,9.58
2019-06-10T05:43:43.466Z,8.48
2019-06-10T05:46:15.128Z,11.15
2019-06-10T05:48:44.550Z,8.87
2019-06-10T05:51:14.260Z,10.15
2019-06-10T05:53:46.414Z,13.22
2019-06-10T05:56:15.213Z,10.07
2019-06-10T05:58:44.926Z,9.83
2019-06-10T06:01:14.639Z,15.93
2019-06-10T06:03:44.346Z,16.32
2019-06-10T06:06:14.056Z,22.37
2019-06-10T06:08:43.766Z,22.13
2019-06-10T06:11:14.453Z,21.75
2019-06-10T06:13:44.213Z,14.18
2019-06-10T06:16:14.743Z,17.12
2019-06-10T06:18:44.427Z,15.98
2019-06-10T06:21:25.334Z,17.55
2019-06-10T06:23:45.508Z,16.00
2019-06-10T06:26:16.775Z,16.20
2019-06-10T06:28:46.673Z,14.07
2019-06-10T06:31:16.384Z,15.35
2019-06-10T06:33:46.091Z,14.05
2019-06-10T06:36:15.802Z,15.10
2019-06-10T06:38:45.491Z,12.65
2019-06-10T06:41:15.219Z,14.38
2019-06-10T06:43:45.331Z,15.03
2019-06-10T06:46:16.459Z,19.10
2019-06-10T06:48:46.197Z,14.47
2019-06-10T06:51:15.911Z,14.68
2019-06-10T06:53:51.936Z,14.23
2019-06-10T06:56:16.861Z,16.00
2019-06-10T06:58:46.571Z,15.55
2019-06-10T07:01:16.255Z,11.93
2019-06-10T07:03:45.992Z,12.90
2019-06-10T07:06:15.909Z,13.75
2019-06-10T07:09:01.478Z,14.78
2019-06-10T07:11:22.359Z,10.90
2019-06-10T07:13:53.329Z,12.07
2019-06-10T07:16:27.215Z,10.53
2019-06-10T07:18:58.805Z,10.53
2019-06-10T07:21:28.196Z,12.63
2019-06-10T07:23:57.906Z,10.80
2019-06-10T07:26:27.617Z,14.25
2019-06-10T07:28:57.326Z,16.23
2019-06-10T07:31:28.865Z,10.82
2019-06-10T07:33:58.284Z,11.47
2019-06-10T07:36:32.645Z,10.55
2019-06-10T07:39:00.264Z,11.90
2019-06-10T07:41:32.324Z,12.18
2019-06-10T07:44:03.102Z,9.63
2019-06-10T07:46:33.506Z,11.15
2019-06-10T07:49:09.035Z,9.20
2019-06-10T07:51:41.467Z,10.70
2019-06-10T07:54:12.278Z,11.43
2019-06-10T07:56:47.314Z,12.90
2019-06-10T07:59:13.053Z,12.63
2019-06-10T08:01:51.185Z,11.95
2019-06-10T08:04:14.211Z,11.53
2019-06-10T08:06:45.708Z,9.68
2019-06-10T08:09:15.194Z,11.20
2019-06-10T08:11:46.860Z,10.05
2019-06-10T08:14:16.152Z,13.35
2019-06-10T08:16:48.475Z,10.65
2019-06-10T08:19:29.885Z,10.10
2019-06-10T08:21:49.494Z,10.25
2019-06-10T08:24:22.143Z,10.55
2019-06-10T08:26:52.924Z,13.37
2019-06-10T08:29:23.389Z,10.63
2019-06-10T08:31:53.573Z,8.17
2019-06-10T08:34:23.355Z,11.10
2019-06-10T08:36:54.318Z,10.13
2019-06-10T08:39:24.495Z,11.30
2019-06-10T08:41:54.226Z,10.32
2019-06-10T08:44:23.939Z,10.25
2019-06-10T08:46:53.622Z,12.50
2019-06-10T08:49:24.010Z,8.23
2019-06-10T08:51:53.854Z,10.75
2019-06-10T08:54:23.803Z,9.80
2019-06-10T08:56:55.439Z,9.25
2019-06-10T08:59:24.861Z,9.65
2019-06-10T09:02:05.503Z,10.93
2019-06-10T09:04:35.237Z,11.55
2019-06-10T09:07:05.049Z,10.48
2019-06-10T09:09:34.768Z,10.78
2019-06-10T09:12:04.716Z,8.33
2019-06-10T09:14:35.511Z,9.45
2019-06-10T09:17:06.171Z,11.10
2019-06-10T09:19:35.854Z,11.40
2019-06-10T09:22:05.565Z,9.30
2019-06-10T09:24:35.273Z,13.10
2019-06-10T09:27:04.982Z,12.35
2019-06-10T09:29:36.393Z,15.68
2019-06-10T09:32:06.042Z,11.40
2019-06-10T09:34:35.755Z,15.65
2019-06-10T09:37:05.462Z,9.35
2019-06-10T09:39:37.001Z,11.83
2019-06-10T09:42:06.867Z,15.65
2019-06-10T09:44:36.851Z,11.10
2019-06-10T09:47:06.531Z,14.58
2019-06-10T09:49:36.268Z,9.20
2019-06-10T09:52:05.973Z,8.93
2019-06-10T09:54:36.684Z,10.23
2019-06-10T09:57:06.423Z,9.93
2019-06-10T09:59:36.104Z,12.40
2019-06-10T10:02:07.400Z,8.73
2019-06-10T10:04:37.647Z,14.53
2019-06-10T10:07:07.526Z,11.45
2019-06-10T10:09:37.325Z,14.45
2019-06-10T10:12:07.037Z,13.08
2019-06-10T10:14:36.746Z,11.03
2019-06-10T10:17:06.456Z,9.98
2019-06-10T10:19:36.166Z,5.62
2019-06-10T10:22:05.877Z,9.00
2019-06-10T10:24:35.589Z,6.72
2019-06-10T10:27:09.072Z,7.92
2019-06-10T10:29:36.647Z,9.30
2019-06-10T10:32:18.443Z,7.33
2019-06-10T10:34:48.696Z,8.15
2019-06-10T10:37:19.599Z,7.55
2019-06-10T10:39:53.736Z,8.10
2019-06-10T10:42:23.004Z,5.15
2019-06-10T10:44:57.495Z,7.75
2019-06-10T10:47:27.469Z,6.10
2019-06-10T10:49:56.682Z,8.50
2019-06-10T10:52:26.722Z,7.97
2019-06-10T10:54:58.240Z,7.00
2019-06-10T10:57:27.930Z,6.42
2019-06-10T10:59:57.640Z,13.35
2019-06-10T11:02:27.351Z,7.50
2019-06-10T11:04:57.278Z,8.08
2019-06-10T11:07:28.020Z,10.30
2019-06-10T11:09:57.814Z,10.43
2019-06-10T11:12:27.522Z,5.67
2019-06-10T11:15:01.457Z,9.03
2019-06-10T11:17:30.405Z,5.78
2019-06-10T11:19:59.828Z,9.05
2019-06-10T11:22:29.537Z,10.13
2019-06-10T11:24:59.249Z,8.23
2019-06-10T11:27:28.957Z,8.65
2019-06-10T11:29:59.139Z,9.50
2019-06-10T11:32:32.736Z,10.75
2019-06-10T11:35:02.782Z,11.70
2019-06-10T11:37:31.688Z,5.85
2019-06-10T11:40:02.939Z,8.70
2019-06-10T11:42:33.423Z,10.95
2019-06-10T11:45:04.505Z,7.00
2019-06-10T11:47:34.217Z,12.60
2019-06-10T11:50:04.615Z,4.85
2019-06-10T11:52:36.041Z,7.90
2019-06-10T11:55:15.172Z,8.03
2019-06-10T11:57:42.315Z,7.80
2019-06-10T12:00:14.758Z,4.25
2019-06-10T12:05:13.018Z,8.18
2019-06-10T12:07:43.537Z,8.25
2019-06-10T12:10:14.714Z,8.30
2019-06-10T12:12:44.425Z,7.70
2019-06-10T12:15:15.826Z,7.87
2019-06-10T12:17:50.907Z,7.15
2019-06-10T12:20:17.934Z,9.53
2019-06-10T12:22:49.591Z,17.92
2019-06-10T12:25:32.394Z,15.32
2019-06-10T12:27:55.821Z,9.63
2019-06-10T12:30:24.272Z,11.50
2019-06-10T12:32:57.451Z,11.53
2019-06-10T12:35:25.317Z,12.28
2019-06-10T12:37:58.067Z,8.40
2019-06-10T12:40:26.290Z,10.75
2019-06-10T12:42:57.783Z,9.40
2019-06-10T12:45:29.095Z,14.55
2019-06-10T12:48:04.629Z,11.97
2019-06-10T12:50:31.169Z,16.97
2019-06-10T12:53:04.973Z,14.45
2019-06-10T12:55:40.181Z,11.40
2019-06-10T12:58:05.879Z,10.98
2019-06-10T13:00:48.111Z,9.05
2019-06-10T13:03:17.844Z,8.25
2019-06-10T13:05:47.555Z,9.55
2019-06-10T13:08:20.373Z,13.43
2019-06-10T13:10:48.486Z,8.48
2019-06-10T13:13:18.221Z,12.03
2019-06-10T13:15:47.932Z,14.25
2019-06-10T13:18:19.510Z,12.03
2019-06-10T13:20:48.994Z,12.82
2019-06-10T13:23:28.401Z,12.58
2019-06-10T13:25:55.443Z,12.93
2019-06-10T13:28:22.499Z,11.83
2019-06-10T13:30:54.459Z,9.25
2019-06-10T13:33:23.567Z,11.45
2019-06-10T13:35:53.759Z,8.43
2019-06-10T13:38:25.743Z,10.43
2019-06-10T13:40:54.965Z,11.40
2019-06-10T13:43:25.495Z,12.73
2019-06-10T13:45:56.205Z,10.40
2019-06-10T13:48:27.239Z,9.25
2019-06-10T13:50:56.980Z,8.00
2019-06-10T13:53:26.664Z,13.22
2019-06-10T13:56:17.222Z,9.28
2019-06-10T13:58:27.750Z,8.13
2019-06-10T14:00:57.433Z,13.93
2019-06-10T14:03:27.169Z,9.38
2019-06-10T14:06:01.174Z,12.95
2019-06-10T14:08:28.227Z,12.70
2019-06-10T14:10:57.915Z,12.78
2019-06-10T14:13:27.649Z,8.40
2019-06-10T14:15:57.256Z,8.05
2019-06-10T14:18:26.942Z,11.60
2019-06-10T14:20:56.651Z,11.53
2019-06-10T14:23:26.359Z,10.50
2019-06-10T14:25:56.097Z,15.32
2019-06-10T14:28:39.728Z,8.13
2019-06-10T14:30:57.023Z,7.15
2019-06-10T14:33:27.726Z,13.18
2019-06-10T14:35:57.367Z,9.45
2019-06-10T14:38:27.103Z,7.47
2019-06-10T14:40:56.813Z,8.60
2019-06-10T14:43:26.525Z,10.38
2019-06-10T14:45:56.235Z,12.65
2019-06-10T14:48:26.969Z,11.45
2019-06-10T14:50:56.683Z,8.73
2019-06-10T14:53:26.388Z,9.80
2019-06-10T14:55:56.085Z,10.98
2019-06-10T14:58:25.809Z,9.58
2019-06-10T15:00:55.520Z,10.32
2019-06-10T15:03:25.228Z,7.08
2019-06-10T15:05:54.912Z,7.53
2019-06-10T15:08:26.365Z,10.23
2019-06-10T15:10:56.004Z,9.38
2019-06-10T15:13:25.709Z,9.25
2019-06-10T15:15:55.418Z,11.88
2019-06-10T15:18:25.133Z,11.20
2019-06-10T15:20:55.899Z,14.87
2019-06-10T15:23:25.674Z,7.37
2019-06-10T15:25:57.156Z,13.05
2019-06-10T15:28:26.603Z,10.82
2019-06-10T15:30:56.341Z,9.33
2019-06-10T15:33:25.948Z,9.10
2019-06-10T15:35:55.631Z,10.23
2019-06-10T15:38:25.266Z,13.22
2019-06-10T15:40:54.979Z,13.08
2019-06-10T15:43:24.686Z,9.05
2019-06-10T15:45:54.397Z,9.13
2019-06-10T15:48:25.416Z,15.13
2019-06-10T15:50:55.456Z,7.90
2019-06-10T15:53:25.909Z,9.75
2019-06-10T15:56:13.109Z,13.45
2019-06-10T15:58:27.146Z,15.08
2019-06-10T16:00:56.856Z,10.48
2019-06-10T16:03:28.294Z,15.93
2019-06-10T16:05:58.017Z,9.77
2019-06-10T16:08:27.702Z,14.98
2019-06-10T16:10:58.476Z,9.95
2019-06-10T16:13:28.042Z,7.33
2019-06-10T16:15:57.780Z,4.80
2019-06-10T16:18:28.125Z,6.78
2019-06-10T16:20:58.019Z,7.33
2019-06-10T16:23:27.728Z,17.17
2019-06-10T16:25:57.438Z,22.70
2019-06-10T16:28:27.124Z,17.42
2019-06-10T16:30:56.839Z,20.48
2019-06-10T16:33:27.738Z,20.05
2019-06-10T16:38:27.736Z,27.60
2019-06-10T16:40:57.439Z,17.95
2019-06-10T16:43:27.661Z,26.02
2019-06-10T16:45:58.637Z,27.87
2019-06-10T16:48:29.642Z,25.65
2019-06-10T16:50:59.615Z,19.95
2019-06-10T16:53:34.646Z,15.40
2019-06-10T16:56:03.115Z,20.87
2019-06-10T16:58:33.480Z,13.97
2019-06-10T17:01:04.305Z,13.22
2019-06-10T17:03:35.927Z,17.20
2019-06-10T17:06:05.659Z,20.17
2019-06-10T17:08:35.264Z,25.35
2019-06-10T17:11:04.976Z,15.63
2019-06-10T17:13:35.683Z,14.53
2019-06-10T17:16:05.420Z,18.52
2019-06-10T17:18:35.131Z,13.43
2019-06-10T17:21:04.816Z,18.80
2019-06-10T17:23:36.489Z,15.45
2019-06-10T17:26:05.901Z,19.57
2019-06-10T17:28:36.861Z,20.05
2019-06-10T17:31:07.345Z,23.27
2019-06-10T17:33:37.076Z,18.80
2019-06-10T17:36:06.766Z,18.75
2019-06-10T17:38:36.497Z,18.20
2019-06-10T17:41:06.207Z,16.80
2019-06-10T17:43:35.916Z,23.73
2019-06-10T17:46:05.629Z,15.15
2019-06-10T17:48:35.318Z,18.70
2019-06-10T17:51:05.051Z,14.85
2019-06-10T17:53:37.548Z,16.42
2019-06-10T17:56:07.234Z,14.65
2019-06-10T17:58:49.946Z,15.30
2019-06-10T18:01:27.311Z,17.20
2019-06-10T18:03:57.048Z,19.95
2019-06-10T18:06:27.818Z,16.57
2019-06-10T18:08:58.707Z,17.00
2019-06-10T18:11:28.331Z,16.67
2019-06-10T18:13:58.011Z,15.58
2019-06-10T18:16:28.224Z,9.55
2019-06-10T18:18:58.177Z,15.35
2019-06-10T18:21:30.557Z,12.43
2019-06-10T18:24:07.513Z,13.27
2019-06-10T18:26:30.900Z,14.17
2019-06-10T18:29:23.034Z,13.37
2019-06-10T18:31:53.025Z,12.93
2019-06-10T18:34:22.933Z,10.85
2019-06-10T18:36:52.587Z,17.90
2019-06-10T18:39:23.251Z,11.33
2019-06-10T18:41:54.747Z,11.85
2019-06-10T18:44:26.569Z,15.53
2019-06-10T18:46:55.728Z,14.17
2019-06-10T18:49:25.446Z,14.35
2019-06-10T18:51:55.123Z,13.00
2019-06-10T18:54:24.837Z,11.93
2019-06-10T18:56:55.522Z,10.90
2019-06-10T18:59:25.207Z,7.12
2019-06-10T19:01:54.886Z,10.78
2019-06-10T19:04:24.623Z,6.62
2019-06-10T19:06:54.331Z,12.15
2019-06-10T19:09:24.041Z,7.72
2019-06-10T19:11:53.724Z,11.28
2019-06-10T19:14:23.359Z,7.78
2019-06-10T19:16:53.069Z,9.75
2019-06-10T19:19:22.996Z,9.20
2019-06-10T19:22:04.547Z,7.78
2019-06-10T19:24:24.119Z,12.30
2019-06-10T19:26:53.856Z,11.28
2019-06-10T19:29:33.646Z,7.67
2019-06-10T19:31:55.938Z,13.32
2019-06-10T19:34:25.648Z,11.03
2019-06-10T19:36:55.361Z,9.53
2019-06-10T19:39:25.069Z,10.53
2019-06-10T19:41:54.779Z,10.40
2019-06-10T19:44:25.411Z,13.48
2019-06-10T19:46:55.091Z,8.88
2019-06-10T19:49:24.830Z,16.93
2019-06-10T19:51:54.542Z,12.15
2019-06-10T19:54:24.251Z,10.90
2019-06-10T19:56:53.964Z,10.00
2019-06-10T19:59:23.670Z,13.68
2019-06-10T20:01:54.100Z,10.88
2019-06-10T20:04:24.014Z,10.25
2019-06-10T20:06:53.888Z,16.27
2019-06-10T20:09:23.715Z,12.25
2019-06-10T20:11:53.454Z,11.15
2019-06-10T20:14:23.160Z,15.48
2019-06-10T20:16:52.968Z,7.80
2019-06-10T20:19:23.707Z,8.75
2019-06-10T20:21:54.440Z,10.32
2019-06-10T20:24:24.049Z,7.08
2019-06-10T20:26:53.760Z,7.97
2019-06-10T20:29:23.469Z,12.58
2019-06-10T20:31:54.245Z,9.03
2019-06-10T20:34:26.010Z,11.75
2019-06-10T20:36:55.269Z,10.43
2019-06-10T20:39:25.111Z,10.00
2019-06-10T20:41:56.703Z,10.13
2019-06-10T20:44:26.440Z,10.80
2019-06-10T20:46:56.150Z,10.00
2019-06-10T20:49:25.862Z,7.75
2019-06-10T20:52:09.831Z,11.80
2019-06-10T20:56:56.731Z,12.40
2019-06-10T20:59:26.426Z,8.60
2019-06-10T21:01:56.151Z,11.15
2019-06-10T21:04:28.686Z,10.03
2019-06-10T21:07:02.318Z,7.67
2019-06-10T21:09:32.657Z,15.18
2019-06-10T21:12:02.087Z,12.17
2019-06-10T21:14:33.100Z,11.88
2019-06-10T21:17:03.166Z,11.45
2019-06-10T21:19:33.161Z,13.53
2019-06-10T21:22:03.050Z,7.75
2019-06-10T21:24:32.759Z,7.75
2019-06-10T21:27:02.470Z,10.68
2019-06-10T21:29:32.327Z,9.13
2019-06-10T21:32:03.568Z,7.62
2019-06-10T21:34:33.442Z,10.43
2019-06-10T21:37:03.374Z,9.48
2019-06-10T21:39:33.169Z,8.75
2019-06-10T21:42:02.882Z,9.45
2019-06-10T21:44:32.590Z,13.80
2019-06-10T21:47:02.630Z,10.90
2019-06-10T21:49:32.496Z,12.50
2019-06-10T21:52:03.238Z,8.38
2019-06-10T21:54:33.071Z,13.18
2019-06-10T21:57:02.960Z,6.62
2019-06-10T21:59:33.662Z,10.00
2019-06-10T22:02:03.441Z,9.48
2019-06-10T22:04:33.139Z,8.38
2019-06-10T22:07:03.275Z,13.88
2019-06-10T22:09:33.043Z,6.85
2019-06-10T22:12:03.032Z,11.08
2019-06-10T22:14:33.036Z,5.90
2019-06-10T22:17:03.154Z,8.73
2019-06-10T22:19:32.908Z,9.90
2019-06-10T22:22:02.839Z,8.33
2019-06-10T22:24:32.561Z,7.45
2019-06-10T22:27:02.736Z,8.38
2019-06-10T22:29:34.580Z,12.93
2019-06-10T22:32:04.355Z,7.45
2019-06-10T22:34:34.167Z,9.18
2019-06-10T22:37:04.820Z,7.00
2019-06-10T22:39:34.610Z,10.28
2019-06-10T22:42:04.355Z,11.70
2019-06-10T22:44:34.029Z,11.60
2019-06-10T22:47:03.742Z,8.70
2019-06-10T22:49:33.449Z,8.83
2019-06-10T22:52:03.161Z,10.68
2019-06-10T22:54:33.834Z,10.40
2019-06-10T22:57:03.510Z,10.45
2019-06-10T22:59:35.047Z,8.95
2019-06-10T23:02:04.636Z,14.87
2019-06-10T23:04:35.343Z,11.55
2019-06-10T23:07:04.979Z,11.60
2019-06-10T23:09:34.715Z,9.25
2019-06-10T23:12:04.425Z,9.45
2019-06-10T23:14:34.107Z,10.05
2019-06-10T23:17:03.847Z,7.67
2019-06-10T23:19:33.558Z,11.65
2019-06-10T23:22:03.243Z,14.45
2019-06-10T23:24:32.950Z,9.90
2019-06-10T23:27:03.322Z,12.23
2019-06-10T23:29:33.319Z,9.55
2019-06-10T23:32:06.835Z,11.33
2019-06-10T23:34:35.405Z,11.57
2019-06-10T23:37:05.085Z,10.00
2019-06-10T23:39:34.823Z,10.15
2019-06-10T23:42:04.576Z,13.30
2019-06-10T23:44:34.547Z,13.75
2019-06-10T23:47:04.388Z,14.10
2019-06-10T23:49:34.479Z,15.68
2019-06-10T23:52:05.481Z,13.88
2019-06-10T23:54:35.442Z,15.10
2019-06-10T23:57:06.008Z,12.82
2019-06-10T23:59:37.212Z,15.90
